Pocantico Hills, New York
Current Conditions -  °F | °C
As of 10:56 AM on Saturday 27 Dec 2014 (Local Time) from KHPN Reporting Station
Clear Clear  
Wind Chill: 45°   Ceiling: Unl
Heat Index: 48°   Visibility: 10mi
Dew Point: 31°   Wind: 6mph
Humidity: 52%   Direction: 320°NW
Pressure: 30.23"   Gusts: NA
Location:  41.0851°N, 73.846°W
Report Text: KHPN 271556Z 32005KT 10SM CLR 09/M01 A3023 RMK AO2 SLP242 T00891006
Loading
Personal Weather Stations






























Interactive Weather Map New forecast layout! Learn more

10-Day Weather Forecast

Advertisements
Track Severe Weather on mobile